sensor_id;sensor_type;location;lat;lon;timestamp;temperature;humidity
11246;DHT22;59870;50.106;8.580;2023-06-22T00:01:22;25.90;76.40
11246;DHT22;59870;50.106;8.580;2023-06-22T00:03:50;26.30;76.20
11246;DHT22;59870;50.106;8.580;2023-06-22T00:06:17;25.80;76.00
11246;DHT22;59870;50.106;8.580;2023-06-22T00:08:45;25.80;76.00
11246;DHT22;59870;50.106;8.580;2023-06-22T00:11:13;25.80;76.10
11246;DHT22;59870;50.106;8.580;2023-06-22T00:13:40;26.10;75.80
11246;DHT22;59870;50.106;8.580;2023-06-22T00:16:07;26.00;75.30
11246;DHT22;59870;50.106;8.580;2023-06-22T00:18:35;26.30;75.10
11246;DHT22;59870;50.106;8.580;2023-06-22T00:21:03;26.30;74.70
11246;DHT22;59870;50.106;8.580;2023-06-22T00:23:30;26.30;74.40
11246;DHT22;59870;50.106;8.580;2023-06-22T00:26:01;26.50;75.30
11246;DHT22;59870;50.106;8.580;2023-06-22T00:28:28;26.50;74.20
11246;DHT22;59870;50.106;8.580;2023-06-22T00:30:56;26.60;73.90
11246;DHT22;59870;50.106;8.580;2023-06-22T00:33:25;26.70;73.50
11246;DHT22;59870;50.106;8.580;2023-06-22T00:35:53;27.20;73.80
11246;DHT22;59870;50.106;8.580;2023-06-22T00:38:21;26.60;73.80
11246;DHT22;59870;50.106;8.580;2023-06-22T00:40:48;26.70;73.80
11246;DHT22;59870;50.106;8.580;2023-06-22T00:43:15;26.70;73.20
11246;DHT22;59870;50.106;8.580;2023-06-22T00:45:43;26.70;72.90
11246;DHT22;59870;50.106;8.580;2023-06-22T00:48:12;26.80;73.00
11246;DHT22;59870;50.106;8.580;2023-06-22T00:50:40;26.80;73.00
11246;DHT22;59870;50.106;8.580;2023-06-22T00:53:08;27.40;73.50
11246;DHT22;59870;50.106;8.580;2023-06-22T00:55:42;27.20;73.10
11246;DHT22;59870;50.106;8.580;2023-06-22T00:58:14;26.90;72.50
11246;DHT22;59870;50.106;8.580;2023-06-22T01:00:42;27.00;71.90
11246;DHT22;59870;50.106;8.580;2023-06-22T01:03:10;27.60;72.10
11246;DHT22;59870;50.106;8.580;2023-06-22T01:05:38;27.60;72.00
11246;DHT22;59870;50.106;8.580;2023-06-22T01:11:05;27.20;72.20
11246;DHT22;59870;50.106;8.580;2023-06-22T01:13:41;27.70;74.80
11246;DHT22;59870;50.106;8.580;2023-06-22T01:16:25;27.30;79.30
11246;DHT22;59870;50.106;8.580;2023-06-22T01:18:56;27.60;78.80
11246;DHT22;59870;50.106;8.580;2023-06-22T01:21:27;27.30;81.70
11246;DHT22;59870;50.106;8.580;2023-06-22T01:27:14;27.30;79.90
11246;DHT22;59870;50.106;8.580;2023-06-22T01:29:51;27.30;79.60
11246;DHT22;59870;50.106;8.580;2023-06-22T01:32:20;27.30;79.40
11246;DHT22;59870;50.106;8.580;2023-06-22T01:34:49;27.40;79.30
11246;DHT22;59870;50.106;8.580;2023-06-22T01:37:17;26.80;79.90
11246;DHT22;59870;50.106;8.580;2023-06-22T01:39:45;26.50;80.70
11246;DHT22;59870;50.106;8.580;2023-06-22T01:42:13;26.60;82.40
11246;DHT22;59870;50.106;8.580;2023-06-22T01:44:41;26.70;83.50
11246;DHT22;59870;50.106;8.580;2023-06-22T01:47:09;26.00;84.00
11246;DHT22;59870;50.106;8.580;2023-06-22T01:49:37;25.90;84.90
11246;DHT22;59870;50.106;8.580;2023-06-22T01:52:06;25.80;86.10
11246;DHT22;59870;50.106;8.580;2023-06-22T01:54:34;25.40;86.40
11246;DHT22;59870;50.106;8.580;2023-06-22T01:57:01;25.30;86.70
11246;DHT22;59870;50.106;8.580;2023-06-22T01:59:35;25.30;86.80
11246;DHT22;59870;50.106;8.580;2023-06-22T02:02:08;25.40;87.90
11246;DHT22;59870;50.106;8.580;2023-06-22T02:04:54;25.40;88.60
11246;DHT22;59870;50.106;8.580;2023-06-22T02:07:24;25.50;89.10
11246;DHT22;59870;50.106;8.580;2023-06-22T02:09:55;25.50;88.50
11246;DHT22;59870;50.106;8.580;2023-06-22T02:12:25;25.80;88.70
11246;DHT22;59870;50.106;8.580;2023-06-22T02:14:55;25.50;88.70
11246;DHT22;59870;50.106;8.580;2023-06-22T02:17:26;25.70;89.10
11246;DHT22;59870;50.106;8.580;2023-06-22T02:19:53;26.00;89.80
11246;DHT22;59870;50.106;8.580;2023-06-22T02:22:21;25.90;89.60
11246;DHT22;59870;50.106;8.580;2023-06-22T02:24:48;25.40;89.60
11246;DHT22;59870;50.106;8.580;2023-06-22T02:27:16;25.90;90.20
11246;DHT22;59870;50.106;8.580;2023-06-22T02:29:43;25.30;90.30
11246;DHT22;59870;50.106;8.580;2023-06-22T02:32:11;25.20;90.30
11246;DHT22;59870;50.106;8.580;2023-06-22T02:34:38;25.20;90.30
11246;DHT22;59870;50.106;8.580;2023-06-22T02:37:06;25.70;90.80
11246;DHT22;59870;50.106;8.580;2023-06-22T02:39:33;25.80;90.90
11246;DHT22;59870;50.106;8.580;2023-06-22T02:42:01;25.20;90.60
11246;DHT22;59870;50.106;8.580;2023-06-22T02:44:28;25.20;90.70
11246;DHT22;59870;50.106;8.580;2023-06-22T02:46:56;25.20;90.80
11246;DHT22;59870;50.106;8.580;2023-06-22T02:49:23;25.20;90.80
11246;DHT22;59870;50.106;8.580;2023-06-22T02:51:51;25.30;91.20
11246;DHT22;59870;50.106;8.580;2023-06-22T02:54:20;25.30;91.20
11246;DHT22;59870;50.106;8.580;2023-06-22T02:56:50;25.90;91.10
11246;DHT22;59870;50.106;8.580;2023-06-22T02:59:18;25.40;91.00
11246;DHT22;59870;50.106;8.580;2023-06-22T03:01:52;25.40;90.90
11246;DHT22;59870;50.106;8.580;2023-06-22T03:04:25;25.60;90.90
11246;DHT22;59870;50.106;8.580;2023-06-22T03:06:53;26.10;91.20
11246;DHT22;59870;50.106;8.580;2023-06-22T03:09:20;25.70;91.20
11246;DHT22;59870;50.106;8.580;2023-06-22T03:11:47;25.40;91.30
11246;DHT22;59870;50.106;8.580;2023-06-22T03:14:15;25.90;91.50
11246;DHT22;59870;50.106;8.580;2023-06-22T03:16:43;25.30;91.40
11246;DHT22;59870;50.106;8.580;2023-06-22T03:19:11;25.30;91.50
11246;DHT22;59870;50.106;8.580;2023-06-22T03:21:38;25.40;91.60
11246;DHT22;59870;50.106;8.580;2023-06-22T03:24:07;25.20;91.70
11246;DHT22;59870;50.106;8.580;2023-06-22T03:26:35;25.20;91.70
11246;DHT22;59870;50.106;8.580;2023-06-22T03:29:02;25.90;91.60
11246;DHT22;59870;50.106;8.580;2023-06-22T03:31:31;25.40;91.20
11246;DHT22;59870;50.106;8.580;2023-06-22T03:33:59;25.30;91.20
11246;DHT22;59870;50.106;8.580;2023-06-22T03:36:27;25.30;91.10
11246;DHT22;59870;50.106;8.580;2023-06-22T03:38:55;25.30;91.20
11246;DHT22;59870;50.106;8.580;2023-06-22T03:41:22;25.20;91.30
11246;DHT22;59870;50.106;8.580;2023-06-22T03:43:50;25.70;91.60
11246;DHT22;59870;50.106;8.580;2023-06-22T03:46:18;25.20;91.40
11246;DHT22;59870;50.106;8.580;2023-06-22T03:48:47;25.40;91.50
11246;DHT22;59870;50.106;8.580;2023-06-22T03:51:15;25.20;91.50
11246;DHT22;59870;50.106;8.580;2023-06-22T03:53:42;25.10;91.50
11246;DHT22;59870;50.106;8.580;2023-06-22T03:56:10;25.60;91.90
11246;DHT22;59870;50.106;8.580;2023-06-22T03:58:38;25.00;91.80
11246;DHT22;59870;50.106;8.580;2023-06-22T04:01:10;25.40;91.90
11246;DHT22;59870;50.106;8.580;2023-06-22T04:03:39;25.20;92.00
11246;DHT22;59870;50.106;8.580;2023-06-22T04:06:06;24.80;91.90
11246;DHT22;59870;50.106;8.580;2023-06-22T04:08:34;24.80;91.90
11246;DHT22;59870;50.106;8.580;2023-06-22T04:11:01;25.00;92.10
11246;DHT22;59870;50.106;8.580;2023-06-22T04:13:29;24.70;92.30
11246;DHT22;59870;50.106;8.580;2023-06-22T04:15:56;24.60;92.40
11246;DHT22;59870;50.106;8.580;2023-06-22T04:18:24;24.60;92.50
11246;DHT22;59870;50.106;8.580;2023-06-22T04:20:51;24.60;92.60
11246;DHT22;59870;50.106;8.580;2023-06-22T04:23:19;24.70;92.50
11246;DHT22;59870;50.106;8.580;2023-06-22T04:25:46;24.70;92.40
11246;DHT22;59870;50.106;8.580;2023-06-22T04:28:14;24.80;92.40
11246;DHT22;59870;50.106;8.580;2023-06-22T04:30:41;24.70;92.50
11246;DHT22;59870;50.106;8.580;2023-06-22T04:33:14;24.70;92.60
11246;DHT22;59870;50.106;8.580;2023-06-22T04:35:45;24.90;92.80
11246;DHT22;59870;50.106;8.580;2023-06-22T04:38:13;24.60;92.80
11246;DHT22;59870;50.106;8.580;2023-06-22T04:40:40;24.50;92.90
11246;DHT22;59870;50.106;8.580;2023-06-22T04:43:08;24.50;93.00
11246;DHT22;59870;50.106;8.580;2023-06-22T04:45:37;24.50;93.10
11246;DHT22;59870;50.106;8.580;2023-06-22T04:48:06;24.50;93.20
11246;DHT22;59870;50.106;8.580;2023-06-22T04:50:34;24.40;93.30
11246;DHT22;59870;50.106;8.580;2023-06-22T04:53:01;24.40;93.40
11246;DHT22;59870;50.106;8.580;2023-06-22T04:55:32;24.70;93.60
11246;DHT22;59870;50.106;8.580;2023-06-22T04:58:00;24.30;93.50
11246;DHT22;59870;50.106;8.580;2023-06-22T05:00:32;24.90;94.00
11246;DHT22;59870;50.106;8.580;2023-06-22T05:03:03;24.30;93.70
11246;DHT22;59870;50.106;8.580;2023-06-22T05:05:45;24.30;93.70
11246;DHT22;59870;50.106;8.580;2023-06-22T05:08:13;24.30;93.50
11246;DHT22;59870;50.106;8.580;2023-06-22T05:10:41;24.30;93.60
11246;DHT22;59870;50.106;8.580;2023-06-22T05:13:28;24.30;93.50
11246;DHT22;59870;50.106;8.580;2023-06-22T05:15:55;24.30;93.60
11246;DHT22;59870;50.106;8.580;2023-06-22T05:18:29;24.80;93.90
11246;DHT22;59870;50.106;8.580;2023-06-22T05:20:58;24.30;93.70
11246;DHT22;59870;50.106;8.580;2023-06-22T05:23:25;24.30;93.60
11246;DHT22;59870;50.106;8.580;2023-06-22T05:25:53;25.00;94.00
11246;DHT22;59870;50.106;8.580;2023-06-22T05:28:22;24.40;93.70
11246;DHT22;59870;50.106;8.580;2023-06-22T05:30:50;24.40;93.60
11246;DHT22;59870;50.106;8.580;2023-06-22T05:33:18;24.70;93.90
11246;DHT22;59870;50.106;8.580;2023-06-22T05:35:45;24.50;93.70
11246;DHT22;59870;50.106;8.580;2023-06-22T05:38:12;24.40;93.80
11246;DHT22;59870;50.106;8.580;2023-06-22T05:40:40;24.40;93.80
11246;DHT22;59870;50.106;8.580;2023-06-22T05:43:07;24.60;94.00
11246;DHT22;59870;50.106;8.580;2023-06-22T05:45:34;24.60;93.80
11246;DHT22;59870;50.106;8.580;2023-06-22T05:48:02;24.70;93.80
11246;DHT22;59870;50.106;8.580;2023-06-22T05:50:29;25.00;93.60
11246;DHT22;59870;50.106;8.580;2023-06-22T05:52:57;25.70;93.60
11246;DHT22;59870;50.106;8.580;2023-06-22T05:55:24;25.30;93.10
11246;DHT22;59870;50.106;8.580;2023-06-22T05:57:52;25.50;92.80
11246;DHT22;59870;50.106;8.580;2023-06-22T06:00:20;25.60;92.70
11246;DHT22;59870;50.106;8.580;2023-06-22T06:02:49;25.80;92.40
11246;DHT22;59870;50.106;8.580;2023-06-22T06:05:17;25.70;92.20
11246;DHT22;59870;50.106;8.580;2023-06-22T06:07:46;26.00;91.90
11246;DHT22;59870;50.106;8.580;2023-06-22T06:10:13;26.50;92.20
11246;DHT22;59870;50.106;8.580;2023-06-22T06:12:41;26.10;92.00
11246;DHT22;59870;50.106;8.580;2023-06-22T06:15:09;26.20;91.90
11246;DHT22;59870;50.106;8.580;2023-06-22T06:17:56;26.30;91.40
11246;DHT22;59870;50.106;8.580;2023-06-22T06:20:25;26.40;91.50
11246;DHT22;59870;50.106;8.580;2023-06-22T06:22:53;26.80;91.40
11246;DHT22;59870;50.106;8.580;2023-06-22T06:25:21;26.60;91.00
11246;DHT22;59870;50.106;8.580;2023-06-22T06:27:50;26.70;91.00
11246;DHT22;59870;50.106;8.580;2023-06-22T06:30:19;26.90;90.60
11246;DHT22;59870;50.106;8.580;2023-06-22T06:32:47;26.90;90.60
11246;DHT22;59870;50.106;8.580;2023-06-22T06:35:15;27.10;90.40
11246;DHT22;59870;50.106;8.580;2023-06-22T06:37:48;27.10;90.50
11246;DHT22;59870;50.106;8.580;2023-06-22T06:40:17;27.40;90.60
11246;DHT22;59870;50.106;8.580;2023-06-22T06:42:48;27.20;90.20
11246;DHT22;59870;50.106;8.580;2023-06-22T06:45:21;27.40;90.00
11246;DHT22;59870;50.106;8.580;2023-06-22T06:47:52;27.60;90.10
11246;DHT22;59870;50.106;8.580;2023-06-22T06:50:21;27.90;88.90
11246;DHT22;59870;50.106;8.580;2023-06-22T06:52:49;28.10;88.40
11246;DHT22;59870;50.106;8.580;2023-06-22T06:55:18;28.20;86.90
11246;DHT22;59870;50.106;8.580;2023-06-22T06:57:47;28.40;86.70
11246;DHT22;59870;50.106;8.580;2023-06-22T07:00:16;28.60;86.00
11246;DHT22;59870;50.106;8.580;2023-06-22T07:02:44;28.70;85.80
11246;DHT22;59870;50.106;8.580;2023-06-22T07:05:13;28.90;85.30
11246;DHT22;59870;50.106;8.580;2023-06-22T07:07:40;29.60;84.60
11246;DHT22;59870;50.106;8.580;2023-06-22T07:10:10;29.40;83.30
11246;DHT22;59870;50.106;8.580;2023-06-22T07:12:37;29.90;82.30
11246;DHT22;59870;50.106;8.580;2023-06-22T07:15:07;30.10;82.90
11246;DHT22;59870;50.106;8.580;2023-06-22T07:17:36;29.70;81.40
11246;DHT22;59870;50.106;8.580;2023-06-22T07:20:04;29.90;80.50
11246;DHT22;59870;50.106;8.580;2023-06-22T07:22:42;30.00;79.70
11246;DHT22;59870;50.106;8.580;2023-06-22T07:25:10;30.10;79.50
11246;DHT22;59870;50.106;8.580;2023-06-22T07:30:30;30.50;80.80
11246;DHT22;59870;50.106;8.580;2023-06-22T07:32:59;30.20;79.70
11246;DHT22;59870;50.106;8.580;2023-06-22T07:35:30;30.40;79.10
11246;DHT22;59870;50.106;8.580;2023-06-22T07:37:58;30.40;78.90
11246;DHT22;59870;50.106;8.580;2023-06-22T07:40:30;30.40;78.80
11246;DHT22;59870;50.106;8.580;2023-06-22T07:42:58;30.40;78.50
11246;DHT22;59870;50.106;8.580;2023-06-22T07:45:26;30.40;77.50
11246;DHT22;59870;50.106;8.580;2023-06-22T07:47:53;30.60;77.70
11246;DHT22;59870;50.106;8.580;2023-06-22T07:50:21;31.20;77.40
11246;DHT22;59870;50.106;8.580;2023-06-22T07:52:48;30.70;75.80
11246;DHT22;59870;50.106;8.580;2023-06-22T07:55:16;30.80;75.80
11246;DHT22;59870;50.106;8.580;2023-06-22T07:57:43;30.70;75.70
11246;DHT22;59870;50.106;8.580;2023-06-22T08:00:11;31.00;75.90
11246;DHT22;59870;50.106;8.580;2023-06-22T08:02:45;30.90;75.40
11246;DHT22;59870;50.106;8.580;2023-06-22T08:05:15;31.00;75.50
11246;DHT22;59870;50.106;8.580;2023-06-22T08:07:49;31.10;75.60
11246;DHT22;59870;50.106;8.580;2023-06-22T08:10:17;31.20;74.60
11246;DHT22;59870;50.106;8.580;2023-06-22T08:12:45;31.40;74.50
11246;DHT22;59870;50.106;8.580;2023-06-22T08:15:12;31.50;74.60
11246;DHT22;59870;50.106;8.580;2023-06-22T08:17:40;32.00;73.90
11246;DHT22;59870;50.106;8.580;2023-06-22T08:20:08;31.70;73.60
11246;DHT22;59870;50.106;8.580;2023-06-22T08:22:40;31.80;73.50
11246;DHT22;59870;50.106;8.580;2023-06-22T08:25:09;31.90;71.10
11246;DHT22;59870;50.106;8.580;2023-06-22T08:27:37;31.90;71.90
11246;DHT22;59870;50.106;8.580;2023-06-22T08:30:05;32.00;72.00
11246;DHT22;59870;50.106;8.580;2023-06-22T08:32:33;32.20;71.30
11246;DHT22;59870;50.106;8.580;2023-06-22T08:35:01;32.40;71.00
11246;DHT22;59870;50.106;8.580;2023-06-22T08:37:29;32.30;70.40
11246;DHT22;59870;50.106;8.580;2023-06-22T08:40:04;32.40;69.90
11246;DHT22;59870;50.106;8.580;2023-06-22T08:42:33;32.50;69.60
11246;DHT22;59870;50.106;8.580;2023-06-22T08:45:00;32.50;69.50
11246;DHT22;59870;50.106;8.580;2023-06-22T08:47:28;32.60;68.60
11246;DHT22;59870;50.106;8.580;2023-06-22T08:49:56;32.60;69.40
11246;DHT22;59870;50.106;8.580;2023-06-22T08:52:23;32.70;69.20
11246;DHT22;59870;50.106;8.580;2023-06-22T08:54:51;32.90;69.40
11246;DHT22;59870;50.106;8.580;2023-06-22T08:57:18;33.00;66.70
11246;DHT22;59870;50.106;8.580;2023-06-22T08:59:46;33.10;67.20
11246;DHT22;59870;50.106;8.580;2023-06-22T09:02:13;33.10;66.70
11246;DHT22;59870;50.106;8.580;2023-06-22T09:04:41;33.30;66.00
11246;DHT22;59870;50.106;8.580;2023-06-22T09:07:09;33.30;67.20
11246;DHT22;59870;50.106;8.580;2023-06-22T09:09:37;33.40;66.40
11246;DHT22;59870;50.106;8.580;2023-06-22T09:12:04;33.60;65.30
11246;DHT22;59870;50.106;8.580;2023-06-22T09:14:32;33.80;64.30
11246;DHT22;59870;50.106;8.580;2023-06-22T09:16:59;33.80;63.80
11246;DHT22;59870;50.106;8.580;2023-06-22T09:19:27;33.90;63.10
11246;DHT22;59870;50.106;8.580;2023-06-22T09:21:54;33.80;63.00
11246;DHT22;59870;50.106;8.580;2023-06-22T09:24:22;33.60;64.40
11246;DHT22;59870;50.106;8.580;2023-06-22T09:26:49;33.60;65.30
11246;DHT22;59870;50.106;8.580;2023-06-22T09:29:17;33.60;64.90
11246;DHT22;59870;50.106;8.580;2023-06-22T09:31:45;33.70;63.00
11246;DHT22;59870;50.106;8.580;2023-06-22T09:34:12;33.70;63.80
11246;DHT22;59870;50.106;8.580;2023-06-22T09:36:41;33.90;63.90
11246;DHT22;59870;50.106;8.580;2023-06-22T09:39:08;33.70;63.10
11246;DHT22;59870;50.106;8.580;2023-06-22T09:41:36;33.90;61.90
11246;DHT22;59870;50.106;8.580;2023-06-22T09:44:03;34.20;62.00
11246;DHT22;59870;50.106;8.580;2023-06-22T09:46:31;34.20;61.60
11246;DHT22;59870;50.106;8.580;2023-06-22T09:48:58;34.20;60.80
11246;DHT22;59870;50.106;8.580;2023-06-22T09:51:28;34.40;60.90
11246;DHT22;59870;50.106;8.580;2023-06-22T09:53:56;34.50;59.60
11246;DHT22;59870;50.106;8.580;2023-06-22T09:56:23;34.50;59.70
11246;DHT22;59870;50.106;8.580;2023-06-22T09:58:53;34.40;59.70
11246;DHT22;59870;50.106;8.580;2023-06-22T10:01:32;34.30;60.20
11246;DHT22;59870;50.106;8.580;2023-06-22T10:04:01;34.20;60.60
11246;DHT22;59870;50.106;8.580;2023-06-22T10:06:29;33.90;60.90
11246;DHT22;59870;50.106;8.580;2023-06-22T10:08:57;33.70;60.90
11246;DHT22;59870;50.106;8.580;2023-06-22T10:11:25;33.70;60.70
11246;DHT22;59870;50.106;8.580;2023-06-22T10:13:57;33.70;60.30
11246;DHT22;59870;50.106;8.580;2023-06-22T10:16:30;33.70;60.30
11246;DHT22;59870;50.106;8.580;2023-06-22T10:18:58;33.80;60.30
11246;DHT22;59870;50.106;8.580;2023-06-22T10:21:26;33.90;58.90
11246;DHT22;59870;50.106;8.580;2023-06-22T10:23:55;34.00;59.40
11246;DHT22;59870;50.106;8.580;2023-06-22T10:26:23;34.00;57.70
11246;DHT22;59870;50.106;8.580;2023-06-22T10:28:50;34.40;58.30
11246;DHT22;59870;50.106;8.580;2023-06-22T10:31:33;34.10;57.60
11246;DHT22;59870;50.106;8.580;2023-06-22T10:34:01;34.10;56.40
11246;DHT22;59870;50.106;8.580;2023-06-22T10:36:28;34.70;57.80
11246;DHT22;59870;50.106;8.580;2023-06-22T10:38:56;34.40;57.70
11246;DHT22;59870;50.106;8.580;2023-06-22T10:41:26;34.20;56.80
11246;DHT22;59870;50.106;8.580;2023-06-22T10:43:57;34.20;56.80
11246;DHT22;59870;50.106;8.580;2023-06-22T10:46:26;34.10;57.00
11246;DHT22;59870;50.106;8.580;2023-06-22T10:48:54;34.50;57.30
11246;DHT22;59870;50.106;8.580;2023-06-22T10:51:24;34.00;57.40
11246;DHT22;59870;50.106;8.580;2023-06-22T10:53:53;34.30;56.70
11246;DHT22;59870;50.106;8.580;2023-06-22T10:56:20;33.90;56.50
11246;DHT22;59870;50.106;8.580;2023-06-22T10:58:47;33.90;56.70
11246;DHT22;59870;50.106;8.580;2023-06-22T11:01:15;33.70;56.80
11246;DHT22;59870;50.106;8.580;2023-06-22T11:04:02;33.70;57.60
11246;DHT22;59870;50.106;8.580;2023-06-22T11:06:30;33.90;57.20
11246;DHT22;59870;50.106;8.580;2023-06-22T11:08:57;33.90;57.10
11246;DHT22;59870;50.106;8.580;2023-06-22T11:11:32;33.90;56.40
11246;DHT22;59870;50.106;8.580;2023-06-22T11:14:00;33.90;56.40
11246;DHT22;59870;50.106;8.580;2023-06-22T11:16:28;34.40;56.40
11246;DHT22;59870;50.106;8.580;2023-06-22T11:18:55;34.00;56.10
11246;DHT22;59870;50.106;8.580;2023-06-22T11:21:22;34.10;55.50
11246;DHT22;59870;50.106;8.580;2023-06-22T11:23:50;34.10;55.80
11246;DHT22;59870;50.106;8.580;2023-06-22T11:26:17;34.10;56.40
11246;DHT22;59870;50.106;8.580;2023-06-22T11:28:45;34.10;54.80
11246;DHT22;59870;50.106;8.580;2023-06-22T11:31:12;34.10;55.90
11246;DHT22;59870;50.106;8.580;2023-06-22T11:33:42;34.20;56.00
11246;DHT22;59870;50.106;8.580;2023-06-22T11:36:12;34.20;55.60
11246;DHT22;59870;50.106;8.580;2023-06-22T11:38:39;34.30;55.10
11246;DHT22;59870;50.106;8.580;2023-06-22T11:41:07;34.40;54.70
11246;DHT22;59870;50.106;8.580;2023-06-22T11:43:35;34.50;55.20
11246;DHT22;59870;50.106;8.580;2023-06-22T11:46:04;34.60;55.40
11246;DHT22;59870;50.106;8.580;2023-06-22T11:48:31;34.60;55.70
11246;DHT22;59870;50.106;8.580;2023-06-22T11:51:00;35.00;55.30
11246;DHT22;59870;50.106;8.580;2023-06-22T11:53:27;34.70;55.20
11246;DHT22;59870;50.106;8.580;2023-06-22T11:55:55;34.70;54.60
11246;DHT22;59870;50.106;8.580;2023-06-22T11:58:23;34.80;54.90
11246;DHT22;59870;50.106;8.580;2023-06-22T12:00:50;34.70;55.40
11246;DHT22;59870;50.106;8.580;2023-06-22T12:03:20;35.10;55.90
11246;DHT22;59870;50.106;8.580;2023-06-22T12:05:51;34.70;54.90
11246;DHT22;59870;50.106;8.580;2023-06-22T12:08:21;34.70;54.80
11246;DHT22;59870;50.106;8.580;2023-06-22T12:10:50;34.80;55.20
11246;DHT22;59870;50.106;8.580;2023-06-22T12:13:17;35.20;55.70
11246;DHT22;59870;50.106;8.580;2023-06-22T12:15:45;34.80;54.40
11246;DHT22;59870;50.106;8.580;2023-06-22T12:18:12;34.90;55.10
11246;DHT22;59870;50.106;8.580;2023-06-22T12:20:42;35.30;54.40
11246;DHT22;59870;50.106;8.580;2023-06-22T12:23:10;35.10;54.30
11246;DHT22;59870;50.106;8.580;2023-06-22T12:25:37;35.10;53.10
11246;DHT22;59870;50.106;8.580;2023-06-22T12:28:05;35.50;55.90
11246;DHT22;59870;50.106;8.580;2023-06-22T12:30:33;35.20;53.50
11246;DHT22;59870;50.106;8.580;2023-06-22T12:33:01;35.70;53.20
11246;DHT22;59870;50.106;8.580;2023-06-22T12:35:28;35.20;52.90
11246;DHT22;59870;50.106;8.580;2023-06-22T12:37:55;35.10;53.30
11246;DHT22;59870;50.106;8.580;2023-06-22T12:40:23;35.00;53.30
11246;DHT22;59870;50.106;8.580;2023-06-22T12:42:51;35.00;52.80
11246;DHT22;59870;50.106;8.580;2023-06-22T12:45:18;35.10;53.40
11246;DHT22;59870;50.106;8.580;2023-06-22T12:47:47;35.10;53.80
11246;DHT22;59870;50.106;8.580;2023-06-22T12:50:17;35.10;52.40
11246;DHT22;59870;50.106;8.580;2023-06-22T12:52:44;35.00;52.30
11246;DHT22;59870;50.106;8.580;2023-06-22T12:55:12;35.00;54.10
11246;DHT22;59870;50.106;8.580;2023-06-22T12:57:39;34.90;54.80
11246;DHT22;59870;50.106;8.580;2023-06-22T13:00:07;35.00;53.90
11246;DHT22;59870;50.106;8.580;2023-06-22T13:02:37;35.00;54.70
11246;DHT22;59870;50.106;8.580;2023-06-22T13:05:05;35.00;54.80
11246;DHT22;59870;50.106;8.580;2023-06-22T13:07:32;35.10;55.50
11246;DHT22;59870;50.106;8.580;2023-06-22T13:09:59;35.10;55.40
11246;DHT22;59870;50.106;8.580;2023-06-22T13:12:27;35.20;54.80
11246;DHT22;59870;50.106;8.580;2023-06-22T13:14:56;35.20;54.90
11246;DHT22;59870;50.106;8.580;2023-06-22T13:17:23;35.20;54.80
11246;DHT22;59870;50.106;8.580;2023-06-22T13:19:50;35.30;54.60
11246;DHT22;59870;50.106;8.580;2023-06-22T13:22:33;35.60;55.60
11246;DHT22;59870;50.106;8.580;2023-06-22T13:25:01;35.30;55.70
11246;DHT22;59870;50.106;8.580;2023-06-22T13:27:30;35.30;54.20
11246;DHT22;59870;50.106;8.580;2023-06-22T13:29:58;35.40;55.50
11246;DHT22;59870;50.106;8.580;2023-06-22T13:32:25;35.40;53.50
11246;DHT22;59870;50.106;8.580;2023-06-22T13:34:53;35.30;54.20
11246;DHT22;59870;50.106;8.580;2023-06-22T13:37:21;35.10;54.30
11246;DHT22;59870;50.106;8.580;2023-06-22T13:39:48;35.30;54.70
11246;DHT22;59870;50.106;8.580;2023-06-22T13:42:15;35.10;55.60
11246;DHT22;59870;50.106;8.580;2023-06-22T13:44:43;35.10;55.10
11246;DHT22;59870;50.106;8.580;2023-06-22T13:47:10;35.10;54.60
11246;DHT22;59870;50.106;8.580;2023-06-22T13:49:37;35.00;54.60
11246;DHT22;59870;50.106;8.580;2023-06-22T13:52:05;35.30;54.90
11246;DHT22;59870;50.106;8.580;2023-06-22T13:54:37;34.90;56.00
11246;DHT22;59870;50.106;8.580;2023-06-22T13:57:05;35.00;55.30
11246;DHT22;59870;50.106;8.580;2023-06-22T13:59:32;35.00;55.10
11246;DHT22;59870;50.106;8.580;2023-06-22T14:01:59;35.30;55.80
11246;DHT22;59870;50.106;8.580;2023-06-22T14:04:28;35.10;55.30
11246;DHT22;59870;50.106;8.580;2023-06-22T14:06:56;35.20;55.10
11246;DHT22;59870;50.106;8.580;2023-06-22T14:09:23;35.50;54.80
11246;DHT22;59870;50.106;8.580;2023-06-22T14:11:51;35.10;55.40
11246;DHT22;59870;50.106;8.580;2023-06-22T14:14:18;35.00;55.00
11246;DHT22;59870;50.106;8.580;2023-06-22T14:16:46;35.30;55.70
11246;DHT22;59870;50.106;8.580;2023-06-22T14:19:14;35.50;55.90
11246;DHT22;59870;50.106;8.580;2023-06-22T14:21:41;35.10;55.20
11246;DHT22;59870;50.106;8.580;2023-06-22T14:24:08;35.10;55.40
11246;DHT22;59870;50.106;8.580;2023-06-22T14:26:36;35.10;54.30
11246;DHT22;59870;50.106;8.580;2023-06-22T14:29:03;35.20;53.70
11246;DHT22;59870;50.106;8.580;2023-06-22T14:31:31;35.30;53.70
11246;DHT22;59870;50.106;8.580;2023-06-22T14:33:58;35.40;54.00
11246;DHT22;59870;50.106;8.580;2023-06-22T14:36:26;35.90;51.60
11246;DHT22;59870;50.106;8.580;2023-06-22T14:38:53;35.50;50.60
11246;DHT22;59870;50.106;8.580;2023-06-22T14:41:20;35.60;49.70
11246;DHT22;59870;50.106;8.580;2023-06-22T14:43:49;35.60;49.50
11246;DHT22;59870;50.106;8.580;2023-06-22T14:46:19;35.70;48.30
11246;DHT22;59870;50.106;8.580;2023-06-22T14:48:48;36.20;49.30
11246;DHT22;59870;50.106;8.580;2023-06-22T14:51:15;35.70;47.40
11246;DHT22;59870;50.106;8.580;2023-06-22T14:53:45;35.80;49.50
11246;DHT22;59870;50.106;8.580;2023-06-22T14:56:13;35.70;49.10
11246;DHT22;59870;50.106;8.580;2023-06-22T14:58:43;35.70;49.20
11246;DHT22;59870;50.106;8.580;2023-06-22T15:01:16;35.80;49.40
11246;DHT22;59870;50.106;8.580;2023-06-22T15:03:44;35.80;48.40
11246;DHT22;59870;50.106;8.580;2023-06-22T15:06:12;35.80;48.50
11246;DHT22;59870;50.106;8.580;2023-06-22T15:08:40;35.80;48.40
11246;DHT22;59870;50.106;8.580;2023-06-22T15:11:08;35.70;48.10
11246;DHT22;59870;50.106;8.580;2023-06-22T15:13:39;35.70;48.80
11246;DHT22;59870;50.106;8.580;2023-06-22T15:16:07;35.70;48.50
11246;DHT22;59870;50.106;8.580;2023-06-22T15:18:35;36.10;48.60
11246;DHT22;59870;50.106;8.580;2023-06-22T15:21:04;35.80;48.80
11246;DHT22;59870;50.106;8.580;2023-06-22T15:23:32;35.70;48.10
11246;DHT22;59870;50.106;8.580;2023-06-22T15:26:02;35.80;48.30
11246;DHT22;59870;50.106;8.580;2023-06-22T15:28:32;35.80;48.80
11246;DHT22;59870;50.106;8.580;2023-06-22T15:31:01;35.80;49.80
11246;DHT22;59870;50.106;8.580;2023-06-22T15:33:28;35.80;48.10
11246;DHT22;59870;50.106;8.580;2023-06-22T15:35:56;35.80;49.80
11246;DHT22;59870;50.106;8.580;2023-06-22T15:38:23;35.80;50.40
11246;DHT22;59870;50.106;8.580;2023-06-22T15:40:51;35.70;50.70
11246;DHT22;59870;50.106;8.580;2023-06-22T15:43:18;35.50;50.70
11246;DHT22;59870;50.106;8.580;2023-06-22T15:45:47;35.40;51.10
11246;DHT22;59870;50.106;8.580;2023-06-22T15:48:16;35.20;51.70